sensor_id;sensor_type;location;lat;lon;timestamp;temperature;humidity
23556;DHT22;11956;53.184;8.578;2023-05-07T00:02:33;10.30;99.90
23556;DHT22;11956;53.184;8.578;2023-05-07T00:05:34;10.20;99.90
23556;DHT22;11956;53.184;8.578;2023-05-07T00:08:35;10.20;99.90
23556;DHT22;11956;53.184;8.578;2023-05-07T00:11:35;10.20;99.90
23556;DHT22;11956;53.184;8.578;2023-05-07T00:14:36;10.20;99.90
23556;DHT22;11956;53.184;8.578;2023-05-07T00:17:37;10.20;99.90
23556;DHT22;11956;53.184;8.578;2023-05-07T00:20:38;10.10;99.90
23556;DHT22;11956;53.184;8.578;2023-05-07T00:23:39;10.10;99.90
23556;DHT22;11956;53.184;8.578;2023-05-07T00:26:40;10.00;99.90
23556;DHT22;11956;53.184;8.578;2023-05-07T00:29:41;10.00;99.90
23556;DHT22;11956;53.184;8.578;2023-05-07T00:32:42;10.00;99.90
23556;DHT22;11956;53.184;8.578;2023-05-07T00:35:42;10.00;99.90
23556;DHT22;11956;53.184;8.578;2023-05-07T00:38:43;10.00;99.90
23556;DHT22;11956;53.184;8.578;2023-05-07T00:41:45;10.10;99.90
23556;DHT22;11956;53.184;8.578;2023-05-07T00:44:46;10.10;99.90
23556;DHT22;11956;53.184;8.578;2023-05-07T00:47:47;10.00;99.90
23556;DHT22;11956;53.184;8.578;2023-05-07T00:50:48;10.00;99.90
23556;DHT22;11956;53.184;8.578;2023-05-07T00:53:49;10.10;99.90
23556;DHT22;11956;53.184;8.578;2023-05-07T00:56:50;10.10;99.90
23556;DHT22;11956;53.184;8.578;2023-05-07T00:59:52;10.00;99.90
23556;DHT22;11956;53.184;8.578;2023-05-07T01:02:52;10.00;99.90
23556;DHT22;11956;53.184;8.578;2023-05-07T01:05:54;10.00;99.90
23556;DHT22;11956;53.184;8.578;2023-05-07T01:08:56;10.00;99.90
23556;DHT22;11956;53.184;8.578;2023-05-07T01:11:58;10.10;99.90
23556;DHT22;11956;53.184;8.578;2023-05-07T01:14:59;10.10;99.90
23556;DHT22;11956;53.184;8.578;2023-05-07T01:18:00;10.00;99.90
23556;DHT22;11956;53.184;8.578;2023-05-07T01:21:11;10.00;99.90
23556;DHT22;11956;53.184;8.578;2023-05-07T01:24:13;9.90;99.90
23556;DHT22;11956;53.184;8.578;2023-05-07T01:27:14;9.90;99.90
23556;DHT22;11956;53.184;8.578;2023-05-07T01:30:16;9.90;99.90
23556;DHT22;11956;53.184;8.578;2023-05-07T01:33:21;9.90;99.90
23556;DHT22;11956;53.184;8.578;2023-05-07T01:36:23;9.80;99.90
23556;DHT22;11956;53.184;8.578;2023-05-07T01:39:28;9.80;99.90
23556;DHT22;11956;53.184;8.578;2023-05-07T01:42:30;9.80;99.90
23556;DHT22;11956;53.184;8.578;2023-05-07T01:45:32;9.70;99.90
23556;DHT22;11956;53.184;8.578;2023-05-07T01:48:35;9.70;99.90
23556;DHT22;11956;53.184;8.578;2023-05-07T01:51:36;9.70;99.90
23556;DHT22;11956;53.184;8.578;2023-05-07T01:54:37;9.60;99.90
23556;DHT22;11956;53.184;8.578;2023-05-07T01:57:39;9.60;99.90
23556;DHT22;11956;53.184;8.578;2023-05-07T02:00:40;9.60;99.90
23556;DHT22;11956;53.184;8.578;2023-05-07T02:03:42;9.60;99.90
23556;DHT22;11956;53.184;8.578;2023-05-07T02:06:50;9.50;99.90
23556;DHT22;11956;53.184;8.578;2023-05-07T02:09:51;9.50;99.90
23556;DHT22;11956;53.184;8.578;2023-05-07T02:12:52;9.50;99.90
23556;DHT22;11956;53.184;8.578;2023-05-07T02:15:53;9.40;99.90
23556;DHT22;11956;53.184;8.578;2023-05-07T02:18:54;9.50;99.90
23556;DHT22;11956;53.184;8.578;2023-05-07T02:21:55;9.50;99.90
23556;DHT22;11956;53.184;8.578;2023-05-07T02:24:56;9.30;99.90
23556;DHT22;11956;53.184;8.578;2023-05-07T02:27:57;9.30;99.90
23556;DHT22;11956;53.184;8.578;2023-05-07T02:31:08;9.40;99.90
23556;DHT22;11956;53.184;8.578;2023-05-07T02:34:10;9.40;99.90
23556;DHT22;11956;53.184;8.578;2023-05-07T02:37:11;9.30;99.90
23556;DHT22;11956;53.184;8.578;2023-05-07T02:40:12;9.40;99.90
23556;DHT22;11956;53.184;8.578;2023-05-07T02:43:13;9.40;99.90
23556;DHT22;11956;53.184;8.578;2023-05-07T02:46:17;9.50;99.90
23556;DHT22;11956;53.184;8.578;2023-05-07T02:49:22;9.40;99.90
23556;DHT22;11956;53.184;8.578;2023-05-07T02:52:23;9.40;99.90
23556;DHT22;11956;53.184;8.578;2023-05-07T02:55:24;9.30;99.90
23556;DHT22;11956;53.184;8.578;2023-05-07T02:58:26;9.40;99.90
23556;DHT22;11956;53.184;8.578;2023-05-07T03:01:27;9.40;99.90
23556;DHT22;11956;53.184;8.578;2023-05-07T03:04:40;9.40;99.90
23556;DHT22;11956;53.184;8.578;2023-05-07T03:07:40;9.30;99.90
23556;DHT22;11956;53.184;8.578;2023-05-07T03:10:45;9.30;99.90
23556;DHT22;11956;53.184;8.578;2023-05-07T03:13:47;9.30;99.90
23556;DHT22;11956;53.184;8.578;2023-05-07T03:16:50;9.30;99.90
23556;DHT22;11956;53.184;8.578;2023-05-07T03:19:51;9.30;99.90
23556;DHT22;11956;53.184;8.578;2023-05-07T03:22:52;9.30;99.90
23556;DHT22;11956;53.184;8.578;2023-05-07T03:25:52;9.30;99.90
23556;DHT22;11956;53.184;8.578;2023-05-07T03:28:54;9.30;99.90
23556;DHT22;11956;53.184;8.578;2023-05-07T03:31:55;9.30;99.90
23556;DHT22;11956;53.184;8.578;2023-05-07T03:34:57;9.20;99.90
23556;DHT22;11956;53.184;8.578;2023-05-07T03:37:58;9.20;99.90
23556;DHT22;11956;53.184;8.578;2023-05-07T03:41:01;9.30;99.90
23556;DHT22;11956;53.184;8.578;2023-05-07T03:44:03;9.20;99.90
23556;DHT22;11956;53.184;8.578;2023-05-07T03:47:04;9.30;99.90
23556;DHT22;11956;53.184;8.578;2023-05-07T03:50:05;9.30;99.90
23556;DHT22;11956;53.184;8.578;2023-05-07T03:53:06;9.30;99.90
23556;DHT22;11956;53.184;8.578;2023-05-07T03:56:12;9.30;99.90
23556;DHT22;11956;53.184;8.578;2023-05-07T03:59:14;9.30;99.90
23556;DHT22;11956;53.184;8.578;2023-05-07T04:02:18;9.20;99.90
23556;DHT22;11956;53.184;8.578;2023-05-07T04:05:19;9.20;99.90
23556;DHT22;11956;53.184;8.578;2023-05-07T04:08:24;9.20;99.90
23556;DHT22;11956;53.184;8.578;2023-05-07T04:11:27;9.20;99.90
23556;DHT22;11956;53.184;8.578;2023-05-07T04:14:29;9.20;99.90
23556;DHT22;11956;53.184;8.578;2023-05-07T04:17:32;9.20;99.90
23556;DHT22;11956;53.184;8.578;2023-05-07T04:20:34;9.20;99.90
23556;DHT22;11956;53.184;8.578;2023-05-07T04:23:38;9.30;99.90
23556;DHT22;11956;53.184;8.578;2023-05-07T04:26:44;9.30;99.90
23556;DHT22;11956;53.184;8.578;2023-05-07T04:29:45;9.30;99.90
23556;DHT22;11956;53.184;8.578;2023-05-07T04:32:48;9.20;99.90
23556;DHT22;11956;53.184;8.578;2023-05-07T04:35:49;9.30;99.90
23556;DHT22;11956;53.184;8.578;2023-05-07T04:38:50;9.40;99.90
23556;DHT22;11956;53.184;8.578;2023-05-07T04:41:53;9.40;99.90
23556;DHT22;11956;53.184;8.578;2023-05-07T04:44:54;9.40;99.90
23556;DHT22;11956;53.184;8.578;2023-05-07T04:47:57;9.40;99.90
23556;DHT22;11956;53.184;8.578;2023-05-07T04:50:58;9.40;99.90
23556;DHT22;11956;53.184;8.578;2023-05-07T04:53:59;9.50;99.90
23556;DHT22;11956;53.184;8.578;2023-05-07T04:57:03;9.40;99.90
23556;DHT22;11956;53.184;8.578;2023-05-07T05:00:06;9.50;99.90
23556;DHT22;11956;53.184;8.578;2023-05-07T05:03:09;9.50;99.90
23556;DHT22;11956;53.184;8.578;2023-05-07T05:06:14;9.50;99.90
23556;DHT22;11956;53.184;8.578;2023-05-07T05:09:15;9.50;99.90
23556;DHT22;11956;53.184;8.578;2023-05-07T05:12:17;9.40;99.90
23556;DHT22;11956;53.184;8.578;2023-05-07T05:15:18;9.50;99.90
23556;DHT22;11956;53.184;8.578;2023-05-07T05:18:19;9.70;99.90
23556;DHT22;11956;53.184;8.578;2023-05-07T05:21:21;9.80;99.90
23556;DHT22;11956;53.184;8.578;2023-05-07T05:24:26;9.90;99.90
23556;DHT22;11956;53.184;8.578;2023-05-07T05:27:27;9.90;99.90
23556;DHT22;11956;53.184;8.578;2023-05-07T05:30:28;9.80;99.90
23556;DHT22;11956;53.184;8.578;2023-05-07T05:33:29;9.80;99.90
23556;DHT22;11956;53.184;8.578;2023-05-07T05:36:37;9.90;99.90
23556;DHT22;11956;53.184;8.578;2023-05-07T05:39:38;9.90;99.90
23556;DHT22;11956;53.184;8.578;2023-05-07T05:42:41;9.80;99.90
23556;DHT22;11956;53.184;8.578;2023-05-07T05:45:43;10.00;99.90
23556;DHT22;11956;53.184;8.578;2023-05-07T05:48:44;10.10;99.90
23556;DHT22;11956;53.184;8.578;2023-05-07T05:51:46;10.00;99.90
23556;DHT22;11956;53.184;8.578;2023-05-07T05:54:49;10.10;99.90
23556;DHT22;11956;53.184;8.578;2023-05-07T05:57:52;10.10;99.90
23556;DHT22;11956;53.184;8.578;2023-05-07T06:00:54;10.20;99.90
23556;DHT22;11956;53.184;8.578;2023-05-07T06:03:58;10.20;99.90
23556;DHT22;11956;53.184;8.578;2023-05-07T06:06:59;10.10;99.90
23556;DHT22;11956;53.184;8.578;2023-05-07T06:10:01;10.10;99.90
23556;DHT22;11956;53.184;8.578;2023-05-07T06:13:03;10.10;99.90
23556;DHT22;11956;53.184;8.578;2023-05-07T06:16:07;10.00;99.90
23556;DHT22;11956;53.184;8.578;2023-05-07T06:19:08;10.00;99.90
23556;DHT22;11956;53.184;8.578;2023-05-07T06:22:09;10.00;99.90
23556;DHT22;11956;53.184;8.578;2023-05-07T06:25:10;10.00;99.90
23556;DHT22;11956;53.184;8.578;2023-05-07T06:28:12;10.00;99.90
23556;DHT22;11956;53.184;8.578;2023-05-07T06:31:19;10.00;99.90
23556;DHT22;11956;53.184;8.578;2023-05-07T06:34:34;9.90;99.90
23556;DHT22;11956;53.184;8.578;2023-05-07T06:37:36;10.00;99.90
23556;DHT22;11956;53.184;8.578;2023-05-07T06:40:40;10.00;99.90
23556;DHT22;11956;53.184;8.578;2023-05-07T06:43:41;10.20;99.90
23556;DHT22;11956;53.184;8.578;2023-05-07T06:47:21;10.10;99.90
23556;DHT22;11956;53.184;8.578;2023-05-07T06:50:26;10.20;99.90
23556;DHT22;11956;53.184;8.578;2023-05-07T06:53:31;10.30;99.90
23556;DHT22;11956;53.184;8.578;2023-05-07T06:56:34;10.40;99.90
23556;DHT22;11956;53.184;8.578;2023-05-07T06:59:36;10.40;99.90
23556;DHT22;11956;53.184;8.578;2023-05-07T07:02:37;10.30;99.90
23556;DHT22;11956;53.184;8.578;2023-05-07T07:05:41;10.50;99.90
23556;DHT22;11956;53.184;8.578;2023-05-07T07:08:42;10.60;99.90
23556;DHT22;11956;53.184;8.578;2023-05-07T07:11:46;10.30;99.90
23556;DHT22;11956;53.184;8.578;2023-05-07T07:14:47;10.40;99.90
23556;DHT22;11956;53.184;8.578;2023-05-07T07:17:49;10.40;99.90
23556;DHT22;11956;53.184;8.578;2023-05-07T07:20:50;10.50;99.90
23556;DHT22;11956;53.184;8.578;2023-05-07T07:23:51;10.70;99.90
23556;DHT22;11956;53.184;8.578;2023-05-07T07:26:54;10.70;99.90
23556;DHT22;11956;53.184;8.578;2023-05-07T07:29:56;10.50;99.90
23556;DHT22;11956;53.184;8.578;2023-05-07T07:32:58;10.70;99.90
23556;DHT22;11956;53.184;8.578;2023-05-07T07:36:05;10.90;99.90
23556;DHT22;11956;53.184;8.578;2023-05-07T07:39:07;11.00;99.90
23556;DHT22;11956;53.184;8.578;2023-05-07T07:42:08;10.90;99.90
23556;DHT22;11956;53.184;8.578;2023-05-07T07:45:10;10.90;99.90
23556;DHT22;11956;53.184;8.578;2023-05-07T07:48:15;11.10;99.90
23556;DHT22;11956;53.184;8.578;2023-05-07T07:51:17;11.40;99.90
23556;DHT22;11956;53.184;8.578;2023-05-07T07:54:18;11.40;99.90
23556;DHT22;11956;53.184;8.578;2023-05-07T07:57:19;11.40;99.90
23556;DHT22;11956;53.184;8.578;2023-05-07T08:00:21;11.20;99.90
23556;DHT22;11956;53.184;8.578;2023-05-07T08:03:27;11.30;99.90
23556;DHT22;11956;53.184;8.578;2023-05-07T08:06:32;11.50;99.90
23556;DHT22;11956;53.184;8.578;2023-05-07T08:09:33;11.20;99.90
23556;DHT22;11956;53.184;8.578;2023-05-07T08:12:36;11.40;99.90
23556;DHT22;11956;53.184;8.578;2023-05-07T08:15:37;11.60;99.90
23556;DHT22;11956;53.184;8.578;2023-05-07T08:18:38;12.00;99.90
23556;DHT22;11956;53.184;8.578;2023-05-07T08:21:40;12.00;99.90
23556;DHT22;11956;53.184;8.578;2023-05-07T08:24:42;12.10;99.90
23556;DHT22;11956;53.184;8.578;2023-05-07T08:27:44;12.10;99.90
23556;DHT22;11956;53.184;8.578;2023-05-07T08:30:46;11.90;99.90
23556;DHT22;11956;53.184;8.578;2023-05-07T08:33:47;11.90;99.90
23556;DHT22;11956;53.184;8.578;2023-05-07T08:36:48;11.90;99.90
23556;DHT22;11956;53.184;8.578;2023-05-07T08:39:52;11.90;99.90
23556;DHT22;11956;53.184;8.578;2023-05-07T08:42:56;11.90;99.90
23556;DHT22;11956;53.184;8.578;2023-05-07T08:45:58;12.10;99.90
23556;DHT22;11956;53.184;8.578;2023-05-07T08:49:05;12.30;99.90
23556;DHT22;11956;53.184;8.578;2023-05-07T08:52:07;12.20;99.90
23556;DHT22;11956;53.184;8.578;2023-05-07T08:55:09;12.10;99.90
23556;DHT22;11956;53.184;8.578;2023-05-07T08:58:10;12.00;99.90
23556;DHT22;11956;53.184;8.578;2023-05-07T09:01:14;12.10;99.90
23556;DHT22;11956;53.184;8.578;2023-05-07T09:04:18;12.30;99.90
23556;DHT22;11956;53.184;8.578;2023-05-07T09:07:20;12.40;99.90
23556;DHT22;11956;53.184;8.578;2023-05-07T09:10:22;12.40;99.90
23556;DHT22;11956;53.184;8.578;2023-05-07T09:13:23;12.40;99.90
23556;DHT22;11956;53.184;8.578;2023-05-07T09:16:26;12.50;99.90
23556;DHT22;11956;53.184;8.578;2023-05-07T09:19:28;12.80;99.90
23556;DHT22;11956;53.184;8.578;2023-05-07T09:22:41;12.90;99.90
23556;DHT22;11956;53.184;8.578;2023-05-07T09:25:45;12.80;99.90
23556;DHT22;11956;53.184;8.578;2023-05-07T09:28:55;12.70;99.90
23556;DHT22;11956;53.184;8.578;2023-05-07T09:31:56;12.70;99.90
23556;DHT22;11956;53.184;8.578;2023-05-07T09:34:58;12.60;99.90
23556;DHT22;11956;53.184;8.578;2023-05-07T09:38:02;12.80;99.90
23556;DHT22;11956;53.184;8.578;2023-05-07T09:41:11;12.80;99.90
23556;DHT22;11956;53.184;8.578;2023-05-07T09:44:33;12.70;99.90
23556;DHT22;11956;53.184;8.578;2023-05-07T09:47:35;12.90;99.90
23556;DHT22;11956;53.184;8.578;2023-05-07T09:50:51;12.60;99.90
23556;DHT22;11956;53.184;8.578;2023-05-07T09:53:57;12.50;99.90
23556;DHT22;11956;53.184;8.578;2023-05-07T09:57:02;12.60;99.90
23556;DHT22;11956;53.184;8.578;2023-05-07T10:00:04;13.10;99.90
23556;DHT22;11956;53.184;8.578;2023-05-07T10:03:22;13.10;99.90
23556;DHT22;11956;53.184;8.578;2023-05-07T10:06:31;13.00;99.90
23556;DHT22;11956;53.184;8.578;2023-05-07T10:09:34;12.60;99.90
23556;DHT22;11956;53.184;8.578;2023-05-07T10:12:40;12.40;99.90
23556;DHT22;11956;53.184;8.578;2023-05-07T10:15:48;12.50;99.90
23556;DHT22;11956;53.184;8.578;2023-05-07T10:18:50;12.60;99.90
23556;DHT22;11956;53.184;8.578;2023-05-07T10:21:58;12.60;99.90
23556;DHT22;11956;53.184;8.578;2023-05-07T10:25:16;12.90;99.90
23556;DHT22;11956;53.184;8.578;2023-05-07T10:28:21;12.80;99.90
23556;DHT22;11956;53.184;8.578;2023-05-07T10:34:47;12.70;99.90
23556;DHT22;11956;53.184;8.578;2023-05-07T10:37:50;12.90;99.90
23556;DHT22;11956;53.184;8.578;2023-05-07T10:40:54;12.90;99.90
23556;DHT22;11956;53.184;8.578;2023-05-07T10:43:55;13.00;99.90
23556;DHT22;11956;53.184;8.578;2023-05-07T10:47:07;13.40;99.90
23556;DHT22;11956;53.184;8.578;2023-05-07T10:56:26;14.80;99.90
23556;DHT22;11956;53.184;8.578;2023-05-07T10:59:36;14.70;99.90
23556;DHT22;11956;53.184;8.578;2023-05-07T11:06:13;14.90;99.90
23556;DHT22;11956;53.184;8.578;2023-05-07T11:09:20;14.60;99.90
23556;DHT22;11956;53.184;8.578;2023-05-07T11:15:39;14.90;99.90
23556;DHT22;11956;53.184;8.578;2023-05-07T11:19:00;14.80;99.90
23556;DHT22;11956;53.184;8.578;2023-05-07T11:26:02;14.50;99.90
23556;DHT22;11956;53.184;8.578;2023-05-07T11:29:10;14.30;99.90
23556;DHT22;11956;53.184;8.578;2023-05-07T11:32:13;14.60;99.90
23556;DHT22;11956;53.184;8.578;2023-05-07T11:35:22;15.20;99.90
23556;DHT22;11956;53.184;8.578;2023-05-07T11:38:25;15.40;99.90
23556;DHT22;11956;53.184;8.578;2023-05-07T11:41:36;15.30;99.90
23556;DHT22;11956;53.184;8.578;2023-05-07T11:44:44;15.70;99.90
23556;DHT22;11956;53.184;8.578;2023-05-07T11:47:46;14.90;99.90
23556;DHT22;11956;53.184;8.578;2023-05-07T11:50:59;14.70;99.90
23556;DHT22;11956;53.184;8.578;2023-05-07T11:54:03;14.60;99.90
23556;DHT22;11956;53.184;8.578;2023-05-07T11:57:04;14.70;99.90
23556;DHT22;11956;53.184;8.578;2023-05-07T12:00:08;15.10;99.90
23556;DHT22;11956;53.184;8.578;2023-05-07T12:03:15;15.20;99.90
23556;DHT22;11956;53.184;8.578;2023-05-07T12:06:16;14.80;99.90
23556;DHT22;11956;53.184;8.578;2023-05-07T12:09:18;14.50;99.90
23556;DHT22;11956;53.184;8.578;2023-05-07T12:12:19;14.90;99.90
23556;DHT22;11956;53.184;8.578;2023-05-07T12:15:22;15.10;99.90
23556;DHT22;11956;53.184;8.578;2023-05-07T12:18:24;15.70;99.90
23556;DHT22;11956;53.184;8.578;2023-05-07T12:21:25;16.00;99.90
23556;DHT22;11956;53.184;8.578;2023-05-07T12:24:26;15.80;99.90
23556;DHT22;11956;53.184;8.578;2023-05-07T12:27:27;15.60;99.90
23556;DHT22;11956;53.184;8.578;2023-05-07T12:30:28;15.50;99.90
23556;DHT22;11956;53.184;8.578;2023-05-07T12:33:29;15.80;99.90
23556;DHT22;11956;53.184;8.578;2023-05-07T12:36:39;15.70;99.90
23556;DHT22;11956;53.184;8.578;2023-05-07T12:40:04;15.60;99.90
23556;DHT22;11956;53.184;8.578;2023-05-07T12:43:26;15.50;99.90
23556;DHT22;11956;53.184;8.578;2023-05-07T12:46:28;15.80;99.90
23556;DHT22;11956;53.184;8.578;2023-05-07T12:49:29;15.80;99.90
23556;DHT22;11956;53.184;8.578;2023-05-07T12:52:30;16.20;99.90
23556;DHT22;11956;53.184;8.578;2023-05-07T12:55:32;16.00;99.90
23556;DHT22;11956;53.184;8.578;2023-05-07T12:58:41;16.00;99.90
23556;DHT22;11956;53.184;8.578;2023-05-07T13:01:44;16.20;99.90
23556;DHT22;11956;53.184;8.578;2023-05-07T13:04:45;16.50;99.90
23556;DHT22;11956;53.184;8.578;2023-05-07T13:07:53;16.40;99.90
23556;DHT22;11956;53.184;8.578;2023-05-07T13:10:55;16.10;99.90
23556;DHT22;11956;53.184;8.578;2023-05-07T13:13:57;16.40;99.90
23556;DHT22;11956;53.184;8.578;2023-05-07T13:16:58;16.40;99.90
23556;DHT22;11956;53.184;8.578;2023-05-07T13:19:58;16.30;99.90
23556;DHT22;11956;53.184;8.578;2023-05-07T13:22:59;15.90;99.90
23556;DHT22;11956;53.184;8.578;2023-05-07T13:26:02;15.70;99.90
23556;DHT22;11956;53.184;8.578;2023-05-07T13:29:03;15.70;99.90
23556;DHT22;11956;53.184;8.578;2023-05-07T13:32:04;15.70;99.90
23556;DHT22;11956;53.184;8.578;2023-05-07T13:35:05;15.60;99.90
23556;DHT22;11956;53.184;8.578;2023-05-07T13:38:06;15.80;99.90
23556;DHT22;11956;53.184;8.578;2023-05-07T13:41:08;15.80;99.90
23556;DHT22;11956;53.184;8.578;2023-05-07T13:44:08;16.00;99.90
23556;DHT22;11956;53.184;8.578;2023-05-07T13:47:10;16.20;99.90
23556;DHT22;11956;53.184;8.578;2023-05-07T13:50:12;16.20;99.90
23556;DHT22;11956;53.184;8.578;2023-05-07T13:53:14;16.40;99.90
23556;DHT22;11956;53.184;8.578;2023-05-07T13:56:18;16.50;99.90
23556;DHT22;11956;53.184;8.578;2023-05-07T13:59:20;16.60;99.90
23556;DHT22;11956;53.184;8.578;2023-05-07T14:02:21;16.70;99.90
23556;DHT22;11956;53.184;8.578;2023-05-07T14:05:22;17.10;99.90
23556;DHT22;11956;53.184;8.578;2023-05-07T14:08:24;17.00;99.90
23556;DHT22;11956;53.184;8.578;2023-05-07T14:11:26;17.00;99.90
23556;DHT22;11956;53.184;8.578;2023-05-07T14:14:27;17.10;99.90
23556;DHT22;11956;53.184;8.578;2023-05-07T14:17:27;16.60;99.90
23556;DHT22;11956;53.184;8.578;2023-05-07T14:20:29;16.60;99.90
23556;DHT22;11956;53.184;8.578;2023-05-07T14:23:31;16.80;99.90
23556;DHT22;11956;53.184;8.578;2023-05-07T14:26:33;16.80;99.90
23556;DHT22;11956;53.184;8.578;2023-05-07T14:29:33;16.60;99.90
23556;DHT22;11956;53.184;8.578;2023-05-07T14:32:35;16.40;99.90
23556;DHT22;11956;53.184;8.578;2023-05-07T14:35:36;16.20;99.90
23556;DHT22;11956;53.184;8.578;2023-05-07T14:38:37;16.20;99.90
23556;DHT22;11956;53.184;8.578;2023-05-07T14:41:38;16.30;99.90
23556;DHT22;11956;53.184;8.578;2023-05-07T14:44:39;16.30;99.90
23556;DHT22;11956;53.184;8.578;2023-05-07T14:47:42;16.40;99.90
23556;DHT22;11956;53.184;8.578;2023-05-07T14:50:43;16.60;99.90
23556;DHT22;11956;53.184;8.578;2023-05-07T14:53:44;16.70;99.90
23556;DHT22;11956;53.184;8.578;2023-05-07T14:56:45;16.90;99.90
23556;DHT22;11956;53.184;8.578;2023-05-07T14:59:46;17.00;99.90
23556;DHT22;11956;53.184;8.578;2023-05-07T15:02:47;16.70;99.90
23556;DHT22;11956;53.184;8.578;2023-05-07T15:05:48;16.90;99.90
23556;DHT22;11956;53.184;8.578;2023-05-07T15:08:51;16.70;99.90
23556;DHT22;11956;53.184;8.578;2023-05-07T15:11:53;16.90;99.90
23556;DHT22;11956;53.184;8.578;2023-05-07T15:14:53;16.80;99.90
23556;DHT22;11956;53.184;8.578;2023-05-07T15:17:54;17.00;99.90
23556;DHT22;11956;53.184;8.578;2023-05-07T15:20:55;16.90;99.90
23556;DHT22;11956;53.184;8.578;2023-05-07T15:23:58;16.80;99.90
23556;DHT22;11956;53.184;8.578;2023-05-07T15:26:59;16.80;99.90
23556;DHT22;11956;53.184;8.578;2023-05-07T15:30:01;16.70;99.90
23556;DHT22;11956;53.184;8.578;2023-05-07T15:33:03;16.60;99.90
23556;DHT22;11956;53.184;8.578;2023-05-07T15:36:04;16.50;99.90
23556;DHT22;11956;53.184;8.578;2023-05-07T15:39:06;16.70;99.90
23556;DHT22;11956;53.184;8.578;2023-05-07T15:42:07;16.60;99.90
23556;DHT22;11956;53.184;8.578;2023-05-07T15:45:08;16.50;99.90
23556;DHT22;11956;53.184;8.578;2023-05-07T15:48:10;16.40;99.90
23556;DHT22;11956;53.184;8.578;2023-05-07T15:51:11;16.40;99.90
23556;DHT22;11956;53.184;8.578;2023-05-07T15:54:12;16.60;99.90
23556;DHT22;11956;53.184;8.578;2023-05-07T15:57:13;16.40;99.90
23556;DHT22;11956;53.184;8.578;2023-05-07T16:00:15;16.40;99.90
23556;DHT22;11956;53.184;8.578;2023-05-07T16:03:16;16.50;99.90
23556;DHT22;11956;53.184;8.578;2023-05-07T16:06:18;16.50;99.90
23556;DHT22;11956;53.184;8.578;2023-05-07T16:09:19;16.40;99.90
23556;DHT22;11956;53.184;8.578;2023-05-07T16:12:20;16.50;99.90
23556;DHT22;11956;53.184;8.578;2023-05-07T16:15:22;16.50;99.90
23556;DHT22;11956;53.184;8.578;2023-05-07T16:18:23;16.50;99.90
23556;DHT22;11956;53.184;8.578;2023-05-07T16:21:24;16.60;99.90
23556;DHT22;11956;53.184;8.578;2023-05-07T16:24:25;16.70;99.90
23556;DHT22;11956;53.184;8.578;2023-05-07T16:27:25;16.70;99.90
23556;DHT22;11956;53.184;8.578;2023-05-07T16:30:26;16.60;99.90
23556;DHT22;11956;53.184;8.578;2023-05-07T16:33:27;16.40;99.90
23556;DHT22;11956;53.184;8.578;2023-05-07T16:36:28;16.50;99.90
23556;DHT22;11956;53.184;8.578;2023-05-07T16:39:29;16.60;99.90
23556;DHT22;11956;53.184;8.578;2023-05-07T16:42:30;16.40;99.90
23556;DHT22;11956;53.184;8.578;2023-05-07T16:45:31;16.00;99.90
23556;DHT22;11956;53.184;8.578;2023-05-07T16:48:32;15.90;99.90
23556;DHT22;11956;53.184;8.578;2023-05-07T16:51:33;15.90;99.90
23556;DHT22;11956;53.184;8.578;2023-05-07T16:54:35;15.90;99.90
23556;DHT22;11956;53.184;8.578;2023-05-07T16:57:36;15.80;99.90
23556;DHT22;11956;53.184;8.578;2023-05-07T17:00:38;15.90;99.90
23556;DHT22;11956;53.184;8.578;2023-05-07T17:03:39;15.80;99.90
23556;DHT22;11956;53.184;8.578;2023-05-07T17:06:40;15.80;99.90
23556;DHT22;11956;53.184;8.578;2023-05-07T17:09:41;15.70;99.90
23556;DHT22;11956;53.184;8.578;2023-05-07T17:12:41;15.70;99.90
23556;DHT22;11956;53.184;8.578;2023-05-07T17:15:42;15.70;99.90
23556;DHT22;11956;53.184;8.578;2023-05-07T17:18:45;15.60;99.90
23556;DHT22;11956;53.184;8.578;2023-05-07T17:21:46;15.60;99.90
23556;DHT22;11956;53.184;8.578;2023-05-07T17:24:47;15.50;99.90
23556;DHT22;11956;53.184;8.578;2023-05-07T17:27:48;15.60;99.90
23556;DHT22;11956;53.184;8.578;2023-05-07T17:30:49;15.60;99.90
23556;DHT22;11956;53.184;8.578;2023-05-07T17:33:50;15.60;99.90
23556;DHT22;11956;53.184;8.578;2023-05-07T17:36:51;15.60;99.90
23556;DHT22;11956;53.184;8.578;2023-05-07T17:39:52;15.60;99.90
23556;DHT22;11956;53.184;8.578;2023-05-07T17:42:53;15.50;99.90
23556;DHT22;11956;53.184;8.578;2023-05-07T17:45:54;15.50;99.90
23556;DHT22;11956;53.184;8.578;2023-05-07T17:48:54;15.40;99.90
23556;DHT22;11956;53.184;8.578;2023-05-07T17:51:57;15.40;99.90
23556;DHT22;11956;53.184;8.578;2023-05-07T17:54:57;15.40;99.90
23556;DHT22;11956;53.184;8.578;2023-05-07T17:57:59;15.30;99.90
23556;DHT22;11956;53.184;8.578;2023-05-07T18:01:00;15.20;99.90
23556;DHT22;11956;53.184;8.578;2023-05-07T18:04:01;15.20;99.90
23556;DHT22;11956;53.184;8.578;2023-05-07T18:07:02;15.30;99.90
23556;DHT22;11956;53.184;8.578;2023-05-07T18:10:03;15.20;99.90
23556;DHT22;11956;53.184;8.578;2023-05-07T18:13:04;15.10;99.90
23556;DHT22;11956;53.184;8.578;2023-05-07T18:16:05;15.10;99.90
23556;DHT22;11956;53.184;8.578;2023-05-07T18:19:06;15.10;99.90
23556;DHT22;11956;53.184;8.578;2023-05-07T18:22:07;15.00;99.90
23556;DHT22;11956;53.184;8.578;2023-05-07T18:25:08;15.00;99.90
23556;DHT22;11956;53.184;8.578;2023-05-07T18:28:09;15.00;99.90
23556;DHT22;11956;53.184;8.578;2023-05-07T18:31:10;14.90;99.90
23556;DHT22;11956;53.184;8.578;2023-05-07T18:34:11;14.90;99.90
23556;DHT22;11956;53.184;8.578;2023-05-07T18:37:14;14.90;99.90
23556;DHT22;11956;53.184;8.578;2023-05-07T18:40:15;14.80;99.90
23556;DHT22;11956;53.184;8.578;2023-05-07T18:43:18;14.80;99.90
23556;DHT22;11956;53.184;8.578;2023-05-07T18:46:19;14.80;99.90
23556;DHT22;11956;53.184;8.578;2023-05-07T18:49:20;14.70;99.90
23556;DHT22;11956;53.184;8.578;2023-05-07T18:52:21;14.60;99.90
23556;DHT22;11956;53.184;8.578;2023-05-07T18:55:21;14.50;99.90
23556;DHT22;11956;53.184;8.578;2023-05-07T18:58:22;14.50;99.90
23556;DHT22;11956;53.184;8.578;2023-05-07T19:01:23;14.50;99.90
23556;DHT22;11956;53.184;8.578;2023-05-07T19:04:24;14.30;99.90
23556;DHT22;11956;53.184;8.578;2023-05-07T19:07:25;14.30;99.90
23556;DHT22;11956;53.184;8.578;2023-05-07T19:10:26;14.30;99.90
23556;DHT22;11956;53.184;8.578;2023-05-07T19:13:27;14.20;99.90
23556;DHT22;11956;53.184;8.578;2023-05-07T19:16:28;14.20;99.90
23556;DHT22;11956;53.184;8.578;2023-05-07T19:19:30;14.20;99.90
23556;DHT22;11956;53.184;8.578;2023-05-07T19:22:31;14.10;99.90
23556;DHT22;11956;53.184;8.578;2023-05-07T19:25:32;14.00;99.90
23556;DHT22;11956;53.184;8.578;2023-05-07T19:28:33;14.00;99.90
23556;DHT22;11956;53.184;8.578;2023-05-07T19:31:34;13.90;99.90
23556;DHT22;11956;53.184;8.578;2023-05-07T19:34:35;13.90;99.90
23556;DHT22;11956;53.184;8.578;2023-05-07T19:37:36;13.80;99.90
23556;DHT22;11956;53.184;8.578;2023-05-07T19:40:37;13.80;99.90